createdAt,value
2018-02-25T00:00:05.506Z,54.25
2018-02-25T00:02:33.041Z,54.63
2018-02-25T00:05:00.567Z,54.79
2018-02-25T00:07:28.083Z,54.72
2018-02-25T00:09:55.618Z,55.08
2018-02-25T00:12:23.130Z,54.69
2018-02-25T00:14:50.665Z,54.97
2018-02-25T00:17:18.191Z,55.00
2018-02-25T00:19:45.719Z,55.18
2018-02-25T00:22:30.018Z,55.39
2018-02-25T00:24:57.553Z,54.88
2018-02-25T00:27:25.092Z,54.52
2018-02-25T00:29:52.604Z,55.64
2018-02-25T00:32:20.126Z,55.71
2018-02-25T00:34:47.656Z,55.58
2018-02-25T00:37:15.178Z,56.18
2018-02-25T00:39:42.713Z,55.53
2018-02-25T00:42:10.230Z,55.42
2018-02-25T00:44:37.744Z,55.00
2018-02-25T00:47:05.264Z,55.02
2018-02-25T00:49:32.789Z,55.16
2018-02-25T00:52:00.304Z,54.53
2018-02-25T00:54:27.825Z,54.66
2018-02-25T00:56:55.340Z,53.89
2018-02-25T00:59:22.885Z,54.65
2018-02-25T01:01:50.423Z,54.49
2018-02-25T01:04:17.935Z,54.36
2018-02-25T01:06:45.470Z,54.50
2018-02-25T01:09:12.982Z,54.63
2018-02-25T01:11:40.507Z,54.44
2018-02-25T01:14:08.046Z,54.83
2018-02-25T01:16:35.577Z,55.23
2018-02-25T01:19:03.089Z,55.60
2018-02-25T01:21:30.617Z,55.35
2018-02-25T01:23:58.149Z,56.19
2018-02-25T01:26:25.685Z,55.67
2018-02-25T01:28:53.209Z,55.82
2018-02-25T01:31:20.740Z,55.17
2018-02-25T01:33:48.287Z,55.90
2018-02-25T01:36:15.807Z,55.63
2018-02-25T01:38:43.372Z,55.88
2018-02-25T01:41:10.878Z,56.01
2018-02-25T01:43:38.397Z,56.43
2018-02-25T01:46:05.926Z,56.44
2018-02-25T01:48:33.447Z,56.14
2018-02-25T01:51:05.758Z,56.54
2018-02-25T01:53:33.276Z,56.74
2018-02-25T01:56:00.814Z,56.82
2018-02-25T01:58:28.352Z,57.02
2018-02-25T02:00:55.884Z,56.90
2018-02-25T02:03:23.410Z,56.91
2018-02-25T02:05:50.919Z,57.04
2018-02-25T02:08:18.449Z,56.89
2018-02-25T02:10:45.981Z,57.21
2018-02-25T02:13:13.493Z,57.34
2018-02-25T02:15:41.015Z,57.57
2018-02-25T02:18:08.525Z,57.73
2018-02-25T02:20:36.054Z,57.20
2018-02-25T02:23:03.556Z,57.66
2018-02-25T02:25:31.069Z,57.89
2018-02-25T02:27:58.581Z,57.47
2018-02-25T02:30:26.126Z,57.33
2018-02-25T02:32:53.663Z,57.99
2018-02-25T02:35:21.172Z,58.73
2018-02-25T02:37:48.681Z,59.13
2018-02-25T02:40:16.191Z,59.43
2018-02-25T02:42:43.714Z,59.50
2018-02-25T02:45:11.249Z,59.76
2018-02-25T02:47:38.766Z,59.43
2018-02-25T02:50:06.277Z,59.04
2018-02-25T02:52:33.810Z,58.53
2018-02-25T02:55:01.330Z,58.67
2018-02-25T02:57:28.855Z,58.21
2018-02-25T02:59:56.372Z,58.73
2018-02-25T03:02:23.906Z,58.68
2018-02-25T03:04:51.424Z,58.53
2018-02-25T03:07:18.937Z,59.20
2018-02-25T03:09:46.458Z,59.35
2018-02-25T03:12:13.983Z,59.75
2018-02-25T03:14:41.501Z,60.10
2018-02-25T03:17:09.023Z,60.46
2018-02-25T03:19:36.561Z,60.39
2018-02-25T03:22:04.074Z,60.50
2018-02-25T03:24:31.602Z,60.29
2018-02-25T03:26:59.275Z,60.08
2018-02-25T03:29:26.799Z,60.84
2018-02-25T03:31:54.321Z,60.54
2018-02-25T03:34:21.856Z,60.28
2018-02-25T03:36:49.395Z,60.49
2018-02-25T03:39:16.933Z,60.80
2018-02-25T03:41:44.453Z,61.33
2018-02-25T03:44:11.975Z,61.43
2018-02-25T03:46:39.500Z,61.52
2018-02-25T03:49:07.017Z,60.89
2018-02-25T03:51:34.534Z,61.72
2018-02-25T03:54:02.058Z,62.00
2018-02-25T03:56:29.577Z,61.26
2018-02-25T03:58:57.104Z,61.25
2018-02-25T04:01:24.624Z,60.83
2018-02-25T04:03:52.148Z,61.91
2018-02-25T04:06:19.681Z,62.57
2018-02-25T04:08:47.208Z,63.12
2018-02-25T04:11:14.730Z,63.23
2018-02-25T04:13:42.268Z,63.29
2018-02-25T04:16:09.802Z,63.62
2018-02-25T04:18:37.313Z,63.49
2018-02-25T04:21:04.837Z,63.57
2018-02-25T04:23:32.352Z,62.98
2018-02-25T04:25:59.891Z,63.23
2018-02-25T04:28:27.413Z,63.87
2018-02-25T04:30:54.941Z,64.05
2018-02-25T04:33:22.458Z,64.15
2018-02-25T04:35:49.998Z,64.37
2018-02-25T04:38:17.525Z,64.18
2018-02-25T04:40:45.045Z,63.33
2018-02-25T04:43:12.567Z,63.59
2018-02-25T04:45:40.082Z,63.98
2018-02-25T04:48:07.602Z,63.98
2018-02-25T04:50:35.143Z,63.54
2018-02-25T04:53:02.659Z,63.07
2018-02-25T04:55:30.190Z,63.95
2018-02-25T04:57:57.737Z,64.12
2018-02-25T05:00:25.255Z,64.45
2018-02-25T05:02:52.766Z,63.80
2018-02-25T05:05:20.289Z,63.50
2018-02-25T05:07:47.818Z,64.26
2018-02-25T05:10:15.344Z,64.07
2018-02-25T05:12:42.875Z,64.58
2018-02-25T05:15:10.406Z,64.50
2018-02-25T05:17:37.928Z,64.49
2018-02-25T05:20:05.452Z,64.42
2018-02-25T05:22:32.981Z,64.15
2018-02-25T05:25:00.510Z,64.06
2018-02-25T05:27:28.052Z,64.28
2018-02-25T05:29:55.559Z,64.07
2018-02-25T05:32:23.090Z,64.20
2018-02-25T05:34:50.617Z,64.12
2018-02-25T05:37:18.143Z,63.78
2018-02-25T05:39:45.667Z,64.48
2018-02-25T05:42:13.191Z,65.06
2018-02-25T05:44:40.718Z,65.22
2018-02-25T05:47:08.237Z,64.43
2018-02-25T05:49:35.782Z,65.03
2018-02-25T05:52:03.293Z,65.73
2018-02-25T05:54:30.813Z,64.90
2018-02-25T05:56:58.341Z,65.84
2018-02-25T05:59:25.870Z,65.75
2018-02-25T06:01:53.392Z,66.00
2018-02-25T06:04:20.919Z,66.34
2018-02-25T06:06:48.451Z,65.75
2018-02-25T06:09:15.975Z,65.66
2018-02-25T06:11:43.498Z,65.82
2018-02-25T06:14:11.017Z,66.26
2018-02-25T06:16:38.536Z,66.70
2018-02-25T06:19:06.078Z,65.75
2018-02-25T06:21:33.626Z,66.37
2018-02-25T06:24:01.165Z,66.90
2018-02-25T06:26:28.686Z,66.80
2018-02-25T06:28:56.228Z,66.46
2018-02-25T06:31:23.762Z,66.67
2018-02-25T06:33:51.281Z,66.40
2018-02-25T06:36:18.804Z,66.45
2018-02-25T06:38:46.320Z,66.40
2018-02-25T06:41:13.845Z,65.92
2018-02-25T06:43:41.381Z,66.01
2018-02-25T06:46:08.906Z,65.97
2018-02-25T06:48:36.421Z,65.91
2018-02-25T06:51:03.968Z,66.19
2018-02-25T06:53:31.495Z,65.55
2018-02-25T06:55:59.009Z,65.33
2018-02-25T06:58:26.546Z,65.56
2018-02-25T07:00:54.073Z,64.79
2018-02-25T07:03:21.590Z,64.17
2018-02-25T07:05:49.111Z,64.68
2018-02-25T07:08:16.638Z,64.07
2018-02-25T07:10:44.178Z,63.42
2018-02-25T07:13:11.700Z,63.25
2018-02-25T07:15:39.258Z,63.32
2018-02-25T07:18:06.773Z,63.23
2018-02-25T07:20:34.297Z,62.52
2018-02-25T07:23:01.823Z,62.27
2018-02-25T07:25:29.339Z,61.34
2018-02-25T07:27:56.861Z,62.12
2018-02-25T07:30:24.386Z,61.98
2018-02-25T07:32:51.912Z,61.18
2018-02-25T07:35:19.430Z,61.08
2018-02-25T07:37:46.957Z,59.54
2018-02-25T07:40:14.476Z,58.42
2018-02-25T07:42:42.099Z,58.40
2018-02-25T07:45:09.615Z,56.21
2018-02-25T07:47:37.143Z,55.46
2018-02-25T07:50:04.677Z,54.69
2018-02-25T07:52:32.213Z,51.06
2018-02-25T07:54:59.745Z,49.81
2018-02-25T07:57:27.270Z,48.09
2018-02-25T07:59:54.789Z,48.39
2018-02-25T08:02:22.309Z,46.02
2018-02-25T08:04:49.832Z,45.24
2018-02-25T08:07:17.397Z,43.97
2018-02-25T08:09:44.918Z,42.94
2018-02-25T08:12:12.487Z,41.39
2018-02-25T08:14:40.005Z,41.63
2018-02-25T08:17:07.518Z,38.32
2018-02-25T08:19:35.045Z,37.56
2018-02-25T08:22:02.558Z,40.08
2018-02-25T08:24:30.082Z,41.07
2018-02-25T08:26:57.975Z,39.10
2018-02-25T08:29:25.476Z,37.99
2018-02-25T08:31:52.990Z,37.52
2018-02-25T08:34:20.511Z,39.36
2018-02-25T08:36:48.014Z,37.17
2018-02-25T08:39:15.529Z,34.98
2018-02-25T08:41:43.053Z,36.18
2018-02-25T08:44:10.558Z,36.37
2018-02-25T08:46:38.074Z,34.39
2018-02-25T08:49:05.600Z,34.19
2018-02-25T08:51:33.104Z,33.78
2018-02-25T08:54:00.624Z,33.43
2018-02-25T08:56:28.142Z,33.33
2018-02-25T08:58:55.657Z,32.83
2018-02-25T09:01:23.170Z,33.86
2018-02-25T09:03:50.689Z,31.65
2018-02-25T09:06:18.218Z,32.64
2018-02-25T09:08:45.752Z,30.27
2018-02-25T09:11:13.280Z,30.23
2018-02-25T09:13:40.795Z,32.17
2018-02-25T09:16:08.337Z,32.27
2018-02-25T09:18:35.889Z,31.15
2018-02-25T09:21:03.445Z,31.81
2018-02-25T09:23:30.962Z,30.50
2018-02-25T09:25:58.491Z,31.13
2018-02-25T09:28:26.933Z,32.84
2018-02-25T09:30:56.387Z,28.97
2018-02-25T09:33:23.905Z,29.59
2018-02-25T09:35:51.435Z,24.96
2018-02-25T09:38:19.366Z,25.74
2018-02-25T09:40:47.215Z,27.23
2018-02-25T09:43:14.729Z,26.78
2018-02-25T09:45:42.244Z,26.37
2018-02-25T09:48:09.766Z,27.49
2018-02-25T09:50:37.289Z,26.34
2018-02-25T09:53:05.066Z,25.67
2018-02-25T09:55:32.592Z,28.24
2018-02-25T09:58:00.105Z,27.88
2018-02-25T10:00:27.613Z,28.01
2018-02-25T10:02:55.126Z,25.72
2018-02-25T10:05:22.671Z,23.08
2018-02-25T10:07:50.188Z,24.18
2018-02-25T10:10:17.720Z,21.28
2018-02-25T10:12:46.020Z,21.48
2018-02-25T10:15:13.549Z,22.30
2018-02-25T10:17:41.077Z,28.98
2018-02-25T10:20:08.602Z,29.78
2018-02-25T10:22:36.129Z,31.44
2018-02-25T10:25:03.691Z,31.32
2018-02-25T10:27:31.214Z,33.94
2018-02-25T10:29:58.737Z,34.04
2018-02-25T10:32:26.268Z,36.13
2018-02-25T10:34:53.862Z,34.35
2018-02-25T10:37:21.403Z,33.71
2018-02-25T10:39:48.928Z,35.91
2018-02-25T10:42:16.461Z,36.22
2018-02-25T10:44:44.004Z,37.27
2018-02-25T10:47:11.522Z,36.38
2018-02-25T10:49:39.047Z,35.46
2018-02-25T10:52:07.224Z,38.00
2018-02-25T10:54:34.732Z,37.70
2018-02-25T10:57:02.249Z,38.52
2018-02-25T10:59:30.673Z,38.48
2018-02-25T11:01:58.182Z,38.32
2018-02-25T11:04:25.714Z,37.74
2018-02-25T11:06:53.231Z,37.81
2018-02-25T11:09:20.754Z,39.57
2018-02-25T11:11:48.273Z,39.23
2018-02-25T11:14:15.792Z,38.47
2018-02-25T11:16:44.698Z,40.44
2018-02-25T11:19:13.137Z,40.38
2018-02-25T11:21:40.655Z,39.84
2018-02-25T11:24:08.216Z,39.76
2018-02-25T11:26:35.738Z,40.36
2018-02-25T11:29:04.076Z,41.08
2018-02-25T11:31:31.702Z,41.79
2018-02-25T11:33:59.160Z,41.68
2018-02-25T11:36:26.919Z,41.27
2018-02-25T11:38:54.481Z,41.34
2018-02-25T11:41:22.044Z,41.27
2018-02-25T11:43:49.567Z,40.75
2018-02-25T11:46:17.091Z,40.76
2018-02-25T11:48:44.612Z,41.58
2018-02-25T11:51:12.144Z,41.13
2018-02-25T11:53:39.669Z,41.02
2018-02-25T11:56:07.191Z,41.42
2018-02-25T11:58:34.727Z,41.79
2018-02-25T12:01:02.259Z,42.49
2018-02-25T12:03:29.788Z,42.38
2018-02-25T12:05:57.299Z,42.38
2018-02-25T12:08:24.822Z,41.89
2018-02-25T12:10:52.345Z,41.07
2018-02-25T12:13:19.883Z,41.60
2018-02-25T12:15:47.404Z,42.37
2018-02-25T12:18:14.927Z,41.99
2018-02-25T12:20:42.438Z,42.13
2018-02-25T12:23:09.961Z,41.62
2018-02-25T12:25:37.483Z,41.76
2018-02-25T12:28:05.028Z,41.73
2018-02-25T12:30:32.541Z,42.15
2018-02-25T12:33:00.051Z,42.47
2018-02-25T12:35:27.578Z,42.59
2018-02-25T12:37:55.125Z,42.46
2018-02-25T12:40:22.639Z,42.09
2018-02-25T12:42:50.154Z,41.44
2018-02-25T12:45:17.676Z,42.15
2018-02-25T12:47:45.200Z,42.59
2018-02-25T12:50:12.733Z,42.08
2018-02-25T12:52:40.264Z,42.14
2018-02-25T12:55:07.786Z,42.00
2018-02-25T12:57:35.315Z,41.60
2018-02-25T13:00:02.841Z,42.12
2018-02-25T13:02:30.353Z,42.40
2018-02-25T13:04:57.877Z,42.18
2018-02-25T13:07:25.402Z,42.08
2018-02-25T13:09:52.916Z,42.05
2018-02-25T13:12:20.445Z,41.86
2018-02-25T13:14:47.975Z,41.90
2018-02-25T13:17:15.496Z,41.65
2018-02-25T13:19:43.028Z,42.37
2018-02-25T13:22:10.559Z,42.31
2018-02-25T13:24:38.069Z,41.98
2018-02-25T13:27:05.587Z,41.42
2018-02-25T13:29:33.115Z,41.59
2018-02-25T13:32:00.645Z,41.84
2018-02-25T13:34:28.185Z,41.78
2018-02-25T13:36:55.712Z,41.83
2018-02-25T13:39:23.241Z,42.22
2018-02-25T13:41:50.771Z,41.45
2018-02-25T13:44:18.311Z,41.80
2018-02-25T13:46:45.821Z,41.82
2018-02-25T13:49:13.351Z,41.24
2018-02-25T13:51:40.867Z,41.66
2018-02-25T13:54:08.394Z,42.13
2018-02-25T13:56:35.915Z,41.77
2018-02-25T13:59:03.438Z,42.11
2018-02-25T14:01:30.951Z,41.85
2018-02-25T14:03:58.490Z,41.72
2018-02-25T14:06:26.005Z,41.88
2018-02-25T14:08:53.523Z,41.75
2018-02-25T14:11:21.037Z,42.05
2018-02-25T14:13:48.567Z,41.97
2018-02-25T14:16:16.100Z,41.89
2018-02-25T14:18:43.686Z,41.48
2018-02-25T14:21:11.206Z,41.78
2018-02-25T14:23:38.729Z,41.59
2018-02-25T14:26:06.245Z,41.54
2018-02-25T14:28:33.785Z,41.87
2018-02-25T14:31:01.304Z,41.67
2018-02-25T14:33:28.838Z,41.68
2018-02-25T14:35:56.365Z,41.39
2018-02-25T14:38:23.882Z,41.83
2018-02-25T14:40:51.400Z,42.16
2018-02-25T14:43:18.921Z,42.00
2018-02-25T14:45:46.438Z,41.95
2018-02-25T14:48:13.960Z,42.52
2018-02-25T14:50:41.478Z,43.08
2018-02-25T14:53:08.998Z,43.02
2018-02-25T14:55:36.518Z,43.27
2018-02-25T14:58:04.035Z,42.77
2018-02-25T15:00:31.555Z,42.49
2018-02-25T15:02:59.079Z,42.96
2018-02-25T15:05:26.611Z,43.13
2018-02-25T15:07:54.131Z,43.45
2018-02-25T15:10:21.651Z,43.41
2018-02-25T15:12:49.166Z,43.45
2018-02-25T15:15:16.694Z,43.61
2018-02-25T15:17:44.220Z,43.72
2018-02-25T15:20:11.732Z,43.91
2018-02-25T15:22:39.260Z,44.34
2018-02-25T15:25:06.837Z,44.34
2018-02-25T15:27:34.349Z,44.19
2018-02-25T15:30:01.855Z,44.04
2018-02-25T15:32:29.370Z,44.61
2018-02-25T15:34:56.901Z,44.79
2018-02-25T15:37:24.426Z,44.56
2018-02-25T15:39:51.942Z,45.23
2018-02-25T15:42:19.474Z,45.29
2018-02-25T15:44:46.988Z,45.67
2018-02-25T15:47:14.511Z,45.30
2018-02-25T15:49:42.029Z,45.54
2018-02-25T15:52:09.605Z,45.84
2018-02-25T15:54:37.114Z,45.80
2018-02-25T15:57:04.629Z,45.83
2018-02-25T15:59:32.146Z,46.01
2018-02-25T16:01:59.693Z,46.92
2018-02-25T16:04:27.221Z,46.13
2018-02-25T16:06:54.730Z,46.57
2018-02-25T16:09:22.325Z,46.28
2018-02-25T16:11:49.861Z,46.34
2018-02-25T16:14:17.374Z,46.93
2018-02-25T16:16:44.909Z,46.17
2018-02-25T16:19:12.425Z,46.47
2018-02-25T16:21:39.963Z,47.45
2018-02-25T16:24:07.472Z,46.88
2018-02-25T16:26:35.001Z,46.66
2018-02-25T16:29:02.574Z,47.22
2018-02-25T16:31:30.119Z,47.46
2018-02-25T16:33:57.641Z,47.88
2018-02-25T16:36:25.149Z,48.04
2018-02-25T16:38:52.693Z,48.33
2018-02-25T16:41:20.236Z,48.37
2018-02-25T16:43:47.770Z,48.38
2018-02-25T16:46:15.293Z,48.66
2018-02-25T16:48:42.801Z,48.65
2018-02-25T16:51:10.328Z,48.77
2018-02-25T16:53:37.860Z,48.87
2018-02-25T16:56:05.393Z,49.18
2018-02-25T16:58:32.906Z,48.42
2018-02-25T17:01:00.434Z,48.80
2018-02-25T17:03:27.992Z,49.24
2018-02-25T17:05:55.504Z,49.21
2018-02-25T17:08:23.026Z,48.40
2018-02-25T17:10:50.548Z,49.13
2018-02-25T17:13:18.052Z,49.83
2018-02-25T17:15:45.582Z,49.82
2018-02-25T17:18:13.103Z,49.96
2018-02-25T17:20:40.604Z,49.98
2018-02-25T17:23:08.123Z,49.29
2018-02-25T17:25:35.650Z,49.86
2018-02-25T17:28:03.180Z,50.68
2018-02-25T17:30:30.714Z,50.08
2018-02-25T17:32:58.233Z,50.50
2018-02-25T17:35:25.750Z,50.08
2018-02-25T17:37:53.267Z,50.70
2018-02-25T17:40:20.782Z,50.33
2018-02-25T17:42:48.310Z,50.40
2018-02-25T17:45:15.844Z,50.00
2018-02-25T17:47:43.402Z,49.86
2018-02-25T17:50:10.913Z,50.24
2018-02-25T17:52:38.450Z,50.14
2018-02-25T17:55:05.990Z,50.42
2018-02-25T17:57:33.517Z,50.02
2018-02-25T18:00:01.034Z,49.60
2018-02-25T18:02:29.898Z,50.20
2018-02-25T18:04:57.423Z,49.83
2018-02-25T18:07:25.909Z,50.70
2018-02-25T18:09:53.444Z,50.27
2018-02-25T18:12:21.795Z,50.46
2018-02-25T18:14:49.333Z,50.81
2018-02-25T18:17:17.170Z,50.87
2018-02-25T18:19:44.751Z,50.94
2018-02-25T18:22:12.321Z,50.90
2018-02-25T18:24:39.849Z,51.06
2018-02-25T18:27:07.386Z,51.52
2018-02-25T18:29:34.915Z,51.03
2018-02-25T18:32:02.446Z,51.61
2018-02-25T18:34:29.961Z,52.22
2018-02-25T18:36:57.642Z,52.81
2018-02-25T18:39:25.169Z,52.34
2018-02-25T18:41:52.692Z,52.06
2018-02-25T18:44:20.204Z,52.96
2018-02-25T18:46:47.720Z,53.42
2018-02-25T18:49:16.733Z,53.27
2018-02-25T18:51:44.319Z,52.71
2018-02-25T18:54:11.862Z,52.92
2018-02-25T18:56:39.372Z,52.88
2018-02-25T18:59:06.897Z,53.47
2018-02-25T19:01:34.424Z,53.04
2018-02-25T19:04:01.963Z,53.22
2018-02-25T19:06:29.620Z,52.49
2018-02-25T19:08:57.162Z,53.03
2018-02-25T19:11:24.766Z,53.22
2018-02-25T19:13:52.309Z,53.76
2018-02-25T19:16:19.869Z,52.91
2018-02-25T19:18:47.457Z,53.37
2018-02-25T19:21:15.009Z,53.26
2018-02-25T19:23:42.591Z,54.24
2018-02-25T19:26:10.145Z,54.41
2018-02-25T19:28:37.664Z,54.62
2018-02-25T19:31:05.210Z,54.38
2018-02-25T19:33:32.776Z,54.77
2018-02-25T19:36:05.930Z,55.04
2018-02-25T19:38:39.148Z,54.93
2018-02-25T19:41:12.332Z,54.87
2018-02-25T19:43:39.904Z,54.91
2018-02-25T19:46:07.467Z,54.54
2018-02-25T19:48:35.297Z,55.00
2018-02-25T19:51:02.843Z,56.72
2018-02-25T19:53:30.379Z,56.89
2018-02-25T19:55:57.949Z,57.22
2018-02-25T19:58:25.484Z,57.10
2018-02-25T20:00:53.119Z,57.46
2018-02-25T20:03:20.641Z,56.42
2018-02-25T20:05:48.163Z,57.74
2018-02-25T20:08:15.681Z,58.01
2018-02-25T20:10:44.631Z,58.60
2018-02-25T20:13:12.210Z,58.71
2018-02-25T20:15:39.737Z,59.76
2018-02-25T20:18:07.296Z,59.94
2018-02-25T20:20:34.901Z,58.10
2018-02-25T20:23:02.430Z,59.92
2018-02-25T20:25:29.966Z,60.81
2018-02-25T20:27:57.516Z,60.69
2018-02-25T20:30:25.073Z,60.89
2018-02-25T20:32:52.593Z,60.03
2018-02-25T20:35:20.107Z,62.52
2018-02-25T20:37:47.702Z,61.24
2018-02-25T20:40:15.236Z,61.71
2018-02-25T20:42:42.806Z,60.91
2018-02-25T20:45:10.354Z,61.01
2018-02-25T20:47:37.913Z,61.65
2018-02-25T20:50:05.510Z,63.10
2018-02-25T20:52:33.027Z,62.50
2018-02-25T20:55:00.597Z,63.56
2018-02-25T20:57:28.138Z,62.18
2018-02-25T20:59:56.474Z,61.79
2018-02-25T21:02:24.018Z,63.48
2018-02-25T21:04:51.540Z,62.15
2018-02-25T21:07:19.058Z,62.10
2018-02-25T21:09:46.611Z,62.50
2018-02-25T21:12:14.147Z,62.40
2018-02-25T21:14:41.700Z,62.06
2018-02-25T21:17:09.236Z,62.83
2018-02-25T21:19:36.750Z,63.40
2018-02-25T21:22:04.305Z,65.07
2018-02-25T21:24:31.833Z,64.65
2018-02-25T21:26:59.354Z,65.15
2018-02-25T21:29:26.879Z,65.51
2018-02-25T21:31:54.410Z,66.46
2018-02-25T21:34:21.960Z,66.02
2018-02-25T21:36:49.519Z,66.16
2018-02-25T21:39:17.061Z,66.23
2018-02-25T21:41:44.584Z,67.11
2018-02-25T21:44:12.111Z,67.23
2018-02-25T21:46:39.639Z,66.06
2018-02-25T21:49:07.235Z,67.21
2018-02-25T21:51:34.764Z,66.80
2018-02-25T21:54:02.277Z,68.31
2018-02-25T21:59:39.861Z,69.19
2018-02-25T22:02:12.918Z,69.65
2018-02-25T22:04:40.443Z,69.64
2018-02-25T22:07:07.967Z,70.28
2018-02-25T22:09:35.496Z,70.31
2018-02-25T22:12:03.061Z,70.60
2018-02-25T22:14:30.585Z,70.81
2018-02-25T22:16:58.103Z,71.34
2018-02-25T22:19:25.636Z,71.21
2018-02-25T22:21:53.158Z,70.04
2018-02-25T22:24:20.770Z,71.00
2018-02-25T22:26:48.287Z,71.60
2018-02-25T22:29:15.818Z,71.77
2018-02-25T22:31:43.334Z,72.51
2018-02-25T22:34:10.860Z,72.54
2018-02-25T22:36:38.378Z,73.48
2018-02-25T22:39:05.910Z,74.14
2018-02-25T22:41:33.433Z,75.21
2018-02-25T22:44:01.018Z,75.81
2018-02-25T22:46:28.546Z,75.92
2018-02-25T22:48:56.089Z,76.15
2018-02-25T22:51:23.610Z,75.43
2018-02-25T22:53:51.126Z,76.18
2018-02-25T22:56:18.642Z,77.40
2018-02-25T22:58:46.160Z,77.55
2018-02-25T23:01:13.688Z,77.52
2018-02-25T23:03:41.204Z,78.00
2018-02-25T23:06:08.718Z,77.62
2018-02-25T23:08:36.247Z,78.08
2018-02-25T23:11:03.774Z,77.83
2018-02-25T23:13:31.301Z,77.80
2018-02-25T23:15:58.826Z,77.46
2018-02-25T23:18:26.352Z,77.53
2018-02-25T23:20:53.884Z,77.36
2018-02-25T23:23:21.418Z,77.13
2018-02-25T23:25:48.933Z,77.06
2018-02-25T23:28:16.451Z,75.86
2018-02-25T23:30:43.981Z,76.35
2018-02-25T23:33:11.513Z,75.54
2018-02-25T23:35:39.031Z,74.68
2018-02-25T23:38:06.555Z,75.29
2018-02-25T23:40:34.095Z,74.99
2018-02-25T23:43:01.613Z,74.09
2018-02-25T23:45:29.141Z,74.50
2018-02-25T23:47:56.667Z,74.51
2018-02-25T23:50:24.185Z,74.84
2018-02-25T23:52:51.717Z,74.56
2018-02-25T23:55:19.245Z,73.58
2018-02-25T23:57:46.801Z,74.10
